Time;durP1;ratioP1;P1;durP2;ratioP2;P2;SDS_P1;SDS_P2;PMS_P1;PMS_P2;Temp;Humidity;BMP_temperature;BMP_pressure;BME280_temperature;BME280_humidity;BME280_pressure;Samples;Min_cycle;Max_cycle;Signal;HPM_P1;HPM_P2
2022/03/22 00:00:46;;;;;;;8.27;7.23;;;;;;;;;;5045250;28;20320;-80
2022/03/22 00:03:14;;;;;;;10.63;7.70;;;;;;;;;;5051769;28;20231;-80
2022/03/22 00:05:44;;;;;;;10.60;8.03;;;;;;;;;;5042722;28;20275;-80
2022/03/22 00:08:12;;;;;;;11.20;7.67;;;;;;;;;;5040986;28;20607;-79
2022/03/22 00:10:39;;;;;;;10.87;7.87;;;;;;;;;;5050771;28;20613;-80
2022/03/22 00:13:07;;;;;;;11.27;7.97;;;;;;;;;;5060434;28;20722;-80
2022/03/22 00:15:35;;;;;;;10.57;7.70;;;;;;;;;;5038374;28;20226;-80
2022/03/22 00:18:02;;;;;;;11.73;7.93;;;;;;;;;;5068765;28;20240;-80
2022/03/22 00:20:30;;;;;;;11.43;8.00;;;;;;;;;;5050879;28;20283;-80
2022/03/22 00:22:59;;;;;;;10.97;8.30;;;;;;;;;;5039850;28;20282;-80
2022/03/22 00:25:26;;;;;;;10.90;8.53;;;;;;;;;;5053615;28;20613;-80
2022/03/22 00:27:53;;;;;;;10.73;8.07;;;;;;;;;;5050034;28;20237;-80
2022/03/22 00:30:21;;;;;;;10.23;8.37;;;;;;;;;;5068671;28;20207;-80
2022/03/22 00:32:53;;;;;;;11.07;8.03;;;;;;;;;;5051342;28;20298;-80
2022/03/22 00:35:21;;;;;;;11.20;8.93;;;;;;;;;;5045867;28;20559;-80
2022/03/22 00:37:50;;;;;;;11.90;8.77;;;;;;;;;;5053329;28;20288;-80
2022/03/22 00:40:19;;;;;;;13.80;9.03;;;;;;;;;;5045141;28;20196;-80
2022/03/22 00:42:47;;;;;;;10.60;9.03;;;;;;;;;;5046558;28;20229;-80
2022/03/22 00:45:17;;;;;;;14.03;8.47;;;;;;;;;;5055907;28;20230;-81
2022/03/22 00:47:45;;;;;;;12.10;9.10;;;;;;;;;;5041278;28;20202;-80
2022/03/22 00:50:12;;;;;;;11.60;8.57;;;;;;;;;;5039995;28;20231;-80
2022/03/22 00:52:39;;;;;;;13.33;9.63;;;;;;;;;;5058982;28;20231;-80
2022/03/22 00:55:07;;;;;;;14.37;10.00;;;;;;;;;;5065852;28;20225;-80
2022/03/22 00:57:36;;;;;;;12.20;9.17;;;;;;;;;;5042853;28;20645;-79
2022/03/22 01:00:05;;;;;;;13.47;9.70;;;;;;;;;;5063555;28;20305;-80
2022/03/22 01:02:36;;;;;;;14.33;9.60;;;;;;;;;;5049729;28;20202;-79
2022/03/22 01:05:06;;;;;;;12.27;9.73;;;;;;;;;;5046290;28;20286;-80
2022/03/22 01:07:34;;;;;;;13.03;9.73;;;;;;;;;;5042706;28;20283;-80
2022/03/22 01:10:01;;;;;;;14.23;10.30;;;;;;;;;;5039448;28;20236;-80
2022/03/22 01:12:30;;;;;;;12.20;9.17;;;;;;;;;;5055187;28;20204;-80
2022/03/22 01:14:58;;;;;;;15.23;9.97;;;;;;;;;;5049207;28;20675;-80
2022/03/22 01:17:25;;;;;;;14.90;10.27;;;;;;;;;;5047325;28;20695;-80
2022/03/22 01:19:53;;;;;;;14.37;10.47;;;;;;;;;;5036103;28;20234;-80
2022/03/22 01:22:20;;;;;;;13.93;10.20;;;;;;;;;;5039381;28;20205;-80
2022/03/22 01:24:48;;;;;;;12.20;10.17;;;;;;;;;;5045808;28;20255;-80
2022/03/22 01:27:15;;;;;;;14.63;10.40;;;;;;;;;;5042241;28;20674;-80
2022/03/22 01:29:42;;;;;;;14.23;10.33;;;;;;;;;;5039045;28;20295;-80
2022/03/22 01:32:11;;;;;;;12.20;9.83;;;;;;;;;;5053095;28;20232;-80
2022/03/22 01:34:38;;;;;;;11.17;9.67;;;;;;;;;;5047209;28;20224;-80
2022/03/22 01:37:06;;;;;;;13.27;10.20;;;;;;;;;;5034062;28;20320;-80
2022/03/22 01:39:33;;;;;;;12.67;10.10;;;;;;;;;;5034264;28;20205;-80
2022/03/22 01:42:00;;;;;;;13.80;9.77;;;;;;;;;;5040072;28;20291;-80
2022/03/22 01:44:28;;;;;;;12.90;9.67;;;;;;;;;;5045263;28;20231;-80
2022/03/22 01:46:58;;;;;;;16.20;10.47;;;;;;;;;;5069561;28;20196;-80
2022/03/22 01:49:27;;;;;;;13.73;9.43;;;;;;;;;;5051228;28;20191;-79
2022/03/22 01:51:56;;;;;;;15.07;10.17;;;;;;;;;;5050846;28;20580;-80
2022/03/22 01:54:23;;;;;;;16.67;9.90;;;;;;;;;;5043212;28;20238;-79
2022/03/22 01:56:50;;;;;;;14.40;10.50;;;;;;;;;;5060368;28;20311;-80
2022/03/22 01:59:18;;;;;;;13.30;10.40;;;;;;;;;;5051615;28;20298;-80
2022/03/22 02:07:17;;;;;;;12.60;10.87;;;;;;;;;;5065322;28;20579;-79
2022/03/22 02:09:44;;;;;;;13.93;11.00;;;;;;;;;;5044457;28;20678;-79
2022/03/22 02:12:11;;;;;;;16.13;10.57;;;;;;;;;;5052902;28;20236;-80
2022/03/22 02:14:38;;;;;;;15.57;10.67;;;;;;;;;;5038773;28;20220;-80
2022/03/22 02:17:09;;;;;;;14.23;10.37;;;;;;;;;;5048180;28;20255;-80
2022/03/22 02:19:42;;;;;;;12.23;9.33;;;;;;;;;;5049835;28;20197;-79
2022/03/22 02:22:11;;;;;;;14.33;10.23;;;;;;;;;;5048769;28;20279;-79
2022/03/22 02:24:40;;;;;;;15.87;10.83;;;;;;;;;;5046145;28;20201;-80
2022/03/22 02:27:07;;;;;;;14.13;10.40;;;;;;;;;;5056898;28;20677;-80
2022/03/22 02:29:35;;;;;;;15.43;10.57;;;;;;;;;;5035742;28;20246;-79
2022/03/22 02:32:03;;;;;;;15.17;10.83;;;;;;;;;;5058571;28;20297;-80
2022/03/22 02:34:30;;;;;;;15.67;10.93;;;;;;;;;;5042139;28;20269;-80
2022/03/22 02:36:57;;;;;;;13.50;10.70;;;;;;;;;;5039635;28;20598;-80
2022/03/22 02:39:25;;;;;;;14.70;10.43;;;;;;;;;;5034902;28;20234;-80
2022/03/22 02:41:53;;;;;;;14.93;10.60;;;;;;;;;;5045752;28;20281;-80
2022/03/22 02:44:21;;;;;;;16.43;10.80;;;;;;;;;;5032711;28;20283;-80
2022/03/22 02:46:49;;;;;;;15.00;10.03;;;;;;;;;;5046582;28;20196;-80
2022/03/22 02:49:16;;;;;;;14.53;10.20;;;;;;;;;;5047209;28;20243;-80
2022/03/22 02:51:43;;;;;;;12.83;9.70;;;;;;;;;;5060434;28;20567;-80
2022/03/22 02:54:11;;;;;;;12.87;9.40;;;;;;;;;;5054962;28;20280;-80
2022/03/22 02:56:38;;;;;;;13.87;10.27;;;;;;;;;;5046934;28;20655;-80
2022/03/22 02:59:06;;;;;;;14.97;10.73;;;;;;;;;;5041592;28;20660;-80
2022/03/22 03:01:34;;;;;;;13.60;10.13;;;;;;;;;;5033419;28;20243;-80
2022/03/22 03:04:01;;;;;;;14.60;10.37;;;;;;;;;;5033133;28;20236;-80
2022/03/22 03:06:29;;;;;;;14.17;10.47;;;;;;;;;;5057214;28;20269;-80
2022/03/22 03:08:57;;;;;;;13.67;10.00;;;;;;;;;;5063193;28;20625;-80
2022/03/22 03:11:25;;;;;;;14.57;10.67;;;;;;;;;;5052783;28;20203;-79
2022/03/22 03:16:39;;;;;;;16.87;10.57;;;;;;;;;;5036968;28;20297;-80
2022/03/22 03:19:06;;;;;;;14.97;11.13;;;;;;;;;;5037391;28;20269;-80
2022/03/22 03:21:34;;;;;;;13.73;10.37;;;;;;;;;;5039404;28;20648;-80
2022/03/22 03:24:01;;;;;;;13.73;10.67;;;;;;;;;;5044238;28;20308;-80
2022/03/22 03:26:29;;;;;;;14.87;10.07;;;;;;;;;;5037070;28;20287;-80
2022/03/22 03:28:56;;;;;;;12.97;10.10;;;;;;;;;;5046232;28;20238;-79
2022/03/22 03:31:23;;;;;;;14.10;10.17;;;;;;;;;;5032168;28;20207;-79
2022/03/22 03:33:52;;;;;;;14.30;9.67;;;;;;;;;;5040840;28;20288;-79
2022/03/22 03:36:19;;;;;;;12.23;9.60;;;;;;;;;;5044454;28;20206;-79
2022/03/22 03:38:46;;;;;;;14.10;9.90;;;;;;;;;;5049029;28;20231;-80
2022/03/22 03:47:03;;;;;;;14.13;9.37;;;;;;;;;;5037793;28;20281;-80
2022/03/22 03:49:32;;;;;;;16.83;10.30;;;;;;;;;;5068898;28;20754;-80
2022/03/22 03:51:59;;;;;;;14.70;10.40;;;;;;;;;;5043047;28;20226;-79
2022/03/22 03:54:27;;;;;;;16.17;10.00;;;;;;;;;;5036754;28;20249;-80
2022/03/22 03:56:54;;;;;;;15.70;10.37;;;;;;;;;;5060023;28;20306;-80
2022/03/22 03:59:21;;;;;;;14.23;9.80;;;;;;;;;;5050701;28;20258;-80
2022/03/22 04:01:49;;;;;;;14.43;9.93;;;;;;;;;;5032281;28;20200;-79
2022/03/22 04:04:17;;;;;;;14.50;9.97;;;;;;;;;;5032618;28;20201;-80
2022/03/22 04:06:47;;;;;;;15.17;10.27;;;;;;;;;;5043234;28;20273;-80
2022/03/22 04:09:14;;;;;;;14.00;9.13;;;;;;;;;;5045456;28;20240;-80
2022/03/22 04:11:42;;;;;;;16.40;9.90;;;;;;;;;;5043756;28;20235;-79
2022/03/22 04:14:09;;;;;;;12.77;9.73;;;;;;;;;;5052767;28;20303;-79
2022/03/22 04:16:37;;;;;;;13.10;8.77;;;;;;;;;;5051833;28;20710;-80
2022/03/22 04:19:05;;;;;;;11.30;8.70;;;;;;;;;;5036117;28;20211;-79
2022/03/22 04:21:34;;;;;;;12.33;8.63;;;;;;;;;;5035760;28;20687;-80
2022/03/22 04:24:02;;;;;;;13.43;8.50;;;;;;;;;;5042193;28;20619;-80
2022/03/22 04:26:29;;;;;;;11.67;8.93;;;;;;;;;;5049675;28;20230;-80
2022/03/22 04:34:26;;;;;;;11.43;8.43;;;;;;;;;;5060219;28;20261;-80
2022/03/22 04:36:56;;;;;;;11.50;9.23;;;;;;;;;;5062497;28;20261;-79
2022/03/22 04:39:25;;;;;;;13.10;8.60;;;;;;;;;;5045251;28;20201;-80
2022/03/22 04:41:52;;;;;;;15.53;9.07;;;;;;;;;;5054420;28;20846;-80
2022/03/22 04:44:19;;;;;;;13.43;9.77;;;;;;;;;;5060879;28;20247;-80
2022/03/22 04:46:46;;;;;;;13.60;10.23;;;;;;;;;;5045156;28;20743;-80
2022/03/22 04:49:14;;;;;;;14.97;10.00;;;;;;;;;;5054777;28;20289;-79
2022/03/22 04:57:24;;;;;;;14.73;10.40;;;;;;;;;;5005606;28;20236;-79
2022/03/22 04:59:51;;;;;;;16.63;11.07;;;;;;;;;;5012432;28;20246;-79
2022/03/22 05:02:18;;;;;;;16.47;11.20;;;;;;;;;;4998218;28;20671;-80
2022/03/22 05:04:46;;;;;;;16.67;11.17;;;;;;;;;;5005550;28;20303;-80
2022/03/22 05:07:13;;;;;;;14.20;10.73;;;;;;;;;;5012559;28;20246;-79
2022/03/22 05:09:41;;;;;;;14.33;11.07;;;;;;;;;;5011994;28;20259;-79
2022/03/22 05:12:13;;;;;;;15.73;11.53;;;;;;;;;;5011539;28;20299;-80
2022/03/22 05:14:40;;;;;;;15.23;11.00;;;;;;;;;;5005675;28;20222;-80
2022/03/22 05:17:08;;;;;;;14.83;10.50;;;;;;;;;;5001512;28;20663;-79
2022/03/22 05:19:36;;;;;;;14.23;10.13;;;;;;;;;;5002429;28;20231;-79
2022/03/22 05:22:04;;;;;;;15.70;10.10;;;;;;;;;;4997067;28;20276;-79
2022/03/22 05:24:32;;;;;;;14.17;9.80;;;;;;;;;;4982904;28;20208;-80
2022/03/22 05:27:02;;;;;;;13.67;9.40;;;;;;;;;;5012466;28;20634;-80
2022/03/22 05:29:29;;;;;;;14.13;9.97;;;;;;;;;;5007018;28;20304;-79
2022/03/22 05:31:56;;;;;;;13.90;10.03;;;;;;;;;;5032445;28;20289;-80
2022/03/22 05:34:23;;;;;;;16.40;10.30;;;;;;;;;;5036835;28;20576;-80
2022/03/22 05:36:51;;;;;;;16.23;10.30;;;;;;;;;;5036799;28;20239;-80
2022/03/22 05:39:18;;;;;;;13.70;9.43;;;;;;;;;;5050151;28;20293;-80
2022/03/22 05:41:45;;;;;;;16.90;9.30;;;;;;;;;;5074139;28;20254;-81
2022/03/22 05:44:14;;;;;;;14.60;9.80;;;;;;;;;;5074130;28;20201;-80
2022/03/22 05:46:41;;;;;;;16.63;10.23;;;;;;;;;;5050290;28;20231;-81
2022/03/22 05:49:09;;;;;;;13.87;10.50;;;;;;;;;;5070260;28;20214;-80
2022/03/22 05:51:37;;;;;;;14.83;10.10;;;;;;;;;;5041457;28;20196;-80
2022/03/22 05:54:04;;;;;;;13.97;9.87;;;;;;;;;;5045073;28;20224;-80
2022/03/22 05:56:32;;;;;;;12.67;9.70;;;;;;;;;;5073202;28;20230;-80
2022/03/22 05:59:00;;;;;;;14.50;9.83;;;;;;;;;;5060574;28;20677;-80
2022/03/22 06:01:29;;;;;;;14.10;9.57;;;;;;;;;;5048285;28;20199;-80
2022/03/22 06:03:56;;;;;;;15.40;10.67;;;;;;;;;;5052252;28;20620;-80
2022/03/22 06:06:24;;;;;;;11.70;9.50;;;;;;;;;;5053284;28;20200;-81
2022/03/22 06:08:51;;;;;;;13.63;9.33;;;;;;;;;;5045483;28;20257;-80
2022/03/22 06:11:19;;;;;;;14.13;9.67;;;;;;;;;;5035824;28;20711;-81
2022/03/22 06:13:46;;;;;;;13.47;9.20;;;;;;;;;;5039992;28;20205;-80
2022/03/22 06:16:14;;;;;;;13.27;9.13;;;;;;;;;;5040085;28;20304;-80
2022/03/22 06:18:42;;;;;;;14.33;9.67;;;;;;;;;;5064276;28;20225;-80
2022/03/22 06:21:09;;;;;;;13.00;9.50;;;;;;;;;;5046295;28;20282;-79
2022/03/22 06:23:36;;;;;;;13.60;9.97;;;;;;;;;;5036155;28;20235;-80
2022/03/22 06:26:04;;;;;;;11.93;9.33;;;;;;;;;;5052467;28;20238;-80
2022/03/22 06:28:31;;;;;;;12.90;9.23;;;;;;;;;;5057019;28;20278;-81
2022/03/22 06:30:58;;;;;;;15.57;9.60;;;;;;;;;;5049275;28;20289;-80
2022/03/22 06:33:25;;;;;;;12.77;9.10;;;;;;;;;;5045869;28;20207;-80
2022/03/22 06:35:54;;;;;;;15.97;9.60;;;;;;;;;;5044951;28;20203;-80
2022/03/22 06:38:21;;;;;;;13.87;9.33;;;;;;;;;;5041443;28;20674;-80
2022/03/22 06:40:50;;;;;;;12.20;10.00;;;;;;;;;;5042178;28;20316;-80
2022/03/22 06:43:17;;;;;;;13.87;9.57;;;;;;;;;;5050859;28;20209;-80
2022/03/22 06:45:45;;;;;;;14.37;9.27;;;;;;;;;;5042016;28;20683;-80
2022/03/22 06:48:12;;;;;;;13.53;9.00;;;;;;;;;;5048669;28;20232;-80
2022/03/22 06:50:42;;;;;;;14.60;9.23;;;;;;;;;;5045170;28;20315;-80
2022/03/22 06:53:10;;;;;;;13.67;9.30;;;;;;;;;;5044869;28;20969;-80
2022/03/22 06:55:38;;;;;;;15.53;9.27;;;;;;;;;;5048027;28;20235;-80
2022/03/22 06:58:06;;;;;;;13.87;8.67;;;;;;;;;;5045553;28;20301;-80
2022/03/22 07:00:33;;;;;;;15.47;8.87;;;;;;;;;;5060681;28;20235;-79
2022/03/22 07:03:01;;;;;;;12.53;9.23;;;;;;;;;;5060618;28;20234;-79
2022/03/22 07:05:29;;;;;;;12.07;8.57;;;;;;;;;;5044185;28;20200;-79
2022/03/22 07:07:56;;;;;;;12.50;8.20;;;;;;;;;;5051983;28;20211;-80
2022/03/22 07:10:25;;;;;;;13.70;8.77;;;;;;;;;;5051877;28;20270;-81
2022/03/22 07:12:54;;;;;;;12.03;8.47;;;;;;;;;;5053849;28;20209;-80
2022/03/22 07:15:23;;;;;;;12.30;8.47;;;;;;;;;;5050791;28;20200;-80
2022/03/22 07:17:52;;;;;;;12.83;8.53;;;;;;;;;;5052019;28;20309;-80
2022/03/22 07:20:19;;;;;;;11.13;8.13;;;;;;;;;;5044528;28;20196;-80
2022/03/22 07:22:47;;;;;;;11.07;8.90;;;;;;;;;;5031773;28;20247;-80
2022/03/22 07:25:14;;;;;;;10.87;8.07;;;;;;;;;;5047592;28;20295;-80
2022/03/22 07:27:42;;;;;;;11.77;8.90;;;;;;;;;;5040934;28;20235;-80
2022/03/22 07:30:11;;;;;;;13.33;8.50;;;;;;;;;;5063555;28;20671;-80
2022/03/22 07:32:38;;;;;;;12.20;8.90;;;;;;;;;;5046486;28;20208;-80
2022/03/22 07:35:07;;;;;;;11.23;8.97;;;;;;;;;;5045044;28;20207;-80
2022/03/22 07:37:34;;;;;;;12.10;8.83;;;;;;;;;;5070778;28;20249;-80
2022/03/22 07:40:01;;;;;;;11.53;8.70;;;;;;;;;;5056205;28;20230;-80
2022/03/22 07:42:29;;;;;;;11.93;8.67;;;;;;;;;;5038548;28;20203;-81
2022/03/22 07:45:00;;;;;;;10.63;8.63;;;;;;;;;;5055679;28;20690;-81
2022/03/22 07:47:28;;;;;;;11.43;8.30;;;;;;;;;;5062303;28;20230;-80
2022/03/22 07:53:01;;;;;;;11.37;8.03;;;;;;;;;;5055964;28;20318;-80
2022/03/22 07:55:29;;;;;;;11.03;8.37;;;;;;;;;;5032576;28;20204;-81
2022/03/22 07:57:57;;;;;;;9.87;8.07;;;;;;;;;;5031686;28;20310;-80
2022/03/22 08:00:26;;;;;;;9.83;7.70;;;;;;;;;;5041995;28;20207;-80
2022/03/22 08:02:54;;;;;;;12.07;7.60;;;;;;;;;;5031806;28;20298;-80
2022/03/22 08:05:21;;;;;;;11.07;7.40;;;;;;;;;;5041622;28;20714;-81
2022/03/22 08:07:49;;;;;;;9.50;7.23;;;;;;;;;;5050514;28;20207;-80
2022/03/22 08:10:16;;;;;;;11.50;7.87;;;;;;;;;;5044715;28;20252;-80
2022/03/22 08:12:44;;;;;;;11.83;7.53;;;;;;;;;;5031943;28;20664;-81
2022/03/22 08:15:12;;;;;;;11.30;7.90;;;;;;;;;;5045821;28;20205;-80
2022/03/22 08:17:41;;;;;;;8.50;7.50;;;;;;;;;;5031155;28;20295;-80
2022/03/22 08:20:09;;;;;;;9.97;7.20;;;;;;;;;;5055886;28;20227;-80
2022/03/22 08:22:55;;;;;;;10.97;7.57;;;;;;;;;;5040017;28;20279;-80
2022/03/22 08:25:24;;;;;;;11.40;7.40;;;;;;;;;;5043827;28;20200;-80
2022/03/22 08:27:51;;;;;;;8.20;6.50;;;;;;;;;;5060880;28;20275;-80
2022/03/22 08:30:20;;;;;;;10.10;6.80;;;;;;;;;;5052106;28;20227;-80
2022/03/22 08:32:49;;;;;;;11.23;7.40;;;;;;;;;;5045893;28;20571;-80
2022/03/22 08:35:17;;;;;;;11.10;7.67;;;;;;;;;;5043303;28;20203;-80
2022/03/22 08:37:44;;;;;;;8.30;6.70;;;;;;;;;;5046774;28;20211;-80
2022/03/22 08:40:13;;;;;;;10.57;6.83;;;;;;;;;;5040082;28;20516;-80
2022/03/22 08:42:43;;;;;;;9.93;7.10;;;;;;;;;;5049396;28;20211;-81
2022/03/22 08:45:11;;;;;;;10.40;7.10;;;;;;;;;;5037675;28;20219;-80
2022/03/22 08:47:40;;;;;;;9.27;7.23;;;;;;;;;;5036003;28;20200;-81
2022/03/22 08:50:10;;;;;;;11.20;6.90;;;;;;;;;;5043759;28;20219;-81
2022/03/22 08:52:37;;;;;;;9.03;7.30;;;;;;;;;;5039662;28;20232;-80
2022/03/22 08:55:07;;;;;;;9.17;6.83;;;;;;;;;;5045937;28;20621;-79
2022/03/22 08:57:34;;;;;;;10.00;6.90;;;;;;;;;;5041307;28;20205;-80
2022/03/22 09:00:01;;;;;;;8.93;6.80;;;;;;;;;;5034454;28;20224;-80
2022/03/22 09:02:28;;;;;;;9.10;6.90;;;;;;;;;;5063393;28;20282;-80
2022/03/22 09:07:42;;;;;;;9.17;6.77;;;;;;;;;;5051185;28;20274;-81
2022/03/22 09:10:11;;;;;;;8.43;6.90;;;;;;;;;;5052852;28;20628;-80
2022/03/22 09:12:39;;;;;;;9.23;6.80;;;;;;;;;;5041905;28;20203;-80
2022/03/22 09:15:06;;;;;;;8.77;5.13;;;;;;;;;;5054400;28;20286;-80
2022/03/22 09:17:33;;;;;;;9.57;6.17;;;;;;;;;;5047914;28;20302;-80
2022/03/22 09:20:01;;;;;;;9.80;6.93;;;;;;;;;;5053536;28;20246;-80
2022/03/22 09:22:28;;;;;;;8.13;6.57;;;;;;;;;;5045038;28;20231;-80
2022/03/22 09:24:57;;;;;;;12.77;6.33;;;;;;;;;;5051891;28;20294;-80
2022/03/22 09:27:25;;;;;;;9.80;6.40;;;;;;;;;;5054310;28;20207;-80
2022/03/22 09:29:52;;;;;;;11.00;6.90;;;;;;;;;;5037434;28;20202;-80
2022/03/22 09:32:19;;;;;;;8.47;5.97;;;;;;;;;;5034253;28;20291;-80
2022/03/22 09:34:46;;;;;;;10.20;6.50;;;;;;;;;;5052333;28;20647;-80
2022/03/22 09:37:17;;;;;;;8.53;6.30;;;;;;;;;;5051802;28;20283;-80
2022/03/22 09:39:45;;;;;;;11.43;6.67;;;;;;;;;;5053897;28;20277;-80
2022/03/22 09:42:14;;;;;;;8.27;6.47;;;;;;;;;;5045743;28;20200;-81
2022/03/22 09:44:41;;;;;;;8.67;6.57;;;;;;;;;;5034350;28;20223;-80
2022/03/22 09:47:08;;;;;;;7.93;6.00;;;;;;;;;;5049795;28;20688;-80
2022/03/22 09:49:37;;;;;;;8.33;6.07;;;;;;;;;;5040491;28;20231;-80
2022/03/22 09:52:05;;;;;;;8.70;6.00;;;;;;;;;;5046504;28;20206;-80
2022/03/22 09:54:32;;;;;;;10.33;6.40;;;;;;;;;;5040042;28;20288;-80
2022/03/22 09:56:59;;;;;;;11.93;6.53;;;;;;;;;;5041951;28;20656;-80
2022/03/22 09:59:28;;;;;;;9.97;6.60;;;;;;;;;;5053618;28;20314;-81
2022/03/22 10:01:55;;;;;;;9.70;6.80;;;;;;;;;;5061549;28;20235;-80
2022/03/22 10:04:22;;;;;;;10.43;6.87;;;;;;;;;;5052243;28;20235;-81
2022/03/22 10:06:57;;;;;;;7.93;6.40;;;;;;;;;;5063444;28;20235;-81
2022/03/22 10:09:29;;;;;;;9.43;6.47;;;;;;;;;;5051392;28;20315;-81
2022/03/22 10:11:57;;;;;;;9.00;6.77;;;;;;;;;;5055428;28;20204;-81
2022/03/22 10:14:35;;;;;;;10.97;6.83;;;;;;;;;;5041632;28;20207;-80
2022/03/22 10:17:09;;;;;;;9.57;6.23;;;;;;;;;;5052656;28;20233;-80
2022/03/22 10:19:42;;;;;;;8.63;6.50;;;;;;;;;;5048909;28;20657;-80
2022/03/22 10:22:10;;;;;;;7.63;6.40;;;;;;;;;;5041293;28;20199;-80
2022/03/22 10:24:43;;;;;;;8.87;6.80;;;;;;;;;;5051952;28;20208;-80
2022/03/22 10:27:19;;;;;;;8.33;6.47;;;;;;;;;;5052148;28;20204;-81
2022/03/22 10:29:48;;;;;;;8.23;6.57;;;;;;;;;;5033104;28;20224;-80
2022/03/22 10:32:16;;;;;;;9.93;7.00;;;;;;;;;;5062022;28;20622;-81
2022/03/22 10:34:43;;;;;;;8.57;6.57;;;;;;;;;;5048343;28;20205;-80
2022/03/22 10:37:10;;;;;;;9.73;6.63;;;;;;;;;;5048481;28;20299;-81
2022/03/22 10:39:40;;;;;;;9.60;7.03;;;;;;;;;;5037704;28;20303;-80
2022/03/22 10:42:09;;;;;;;8.57;6.70;;;;;;;;;;5039351;28;20199;-81
2022/03/22 10:44:37;;;;;;;8.47;7.07;;;;;;;;;;5045051;28;20235;-80
2022/03/22 10:47:07;;;;;;;10.40;7.17;;;;;;;;;;5038225;28;20211;-81
2022/03/22 10:49:34;;;;;;;9.93;6.97;;;;;;;;;;5049536;28;20306;-80
2022/03/22 10:52:02;;;;;;;11.20;7.53;;;;;;;;;;5052560;28;20290;-80
2022/03/22 10:54:29;;;;;;;7.20;6.50;;;;;;;;;;5043348;28;20196;-80
2022/03/22 10:56:57;;;;;;;9.37;7.23;;;;;;;;;;5066861;28;20282;-79
2022/03/22 10:59:25;;;;;;;10.77;6.93;;;;;;;;;;5049322;28;20289;-80
2022/03/22 11:01:55;;;;;;;10.13;6.80;;;;;;;;;;5036121;28;20852;-80
2022/03/22 11:04:24;;;;;;;10.37;7.10;;;;;;;;;;5038827;28;20200;-80
2022/03/22 11:06:52;;;;;;;7.70;6.90;;;;;;;;;;5043555;28;20235;-80
2022/03/22 11:09:20;;;;;;;9.17;6.73;;;;;;;;;;5047870;28;20263;-80
2022/03/22 11:11:49;;;;;;;10.10;7.30;;;;;;;;;;5046831;28;20622;-80
2022/03/22 11:14:17;;;;;;;9.77;7.13;;;;;;;;;;5037460;28;20196;-80
2022/03/22 11:16:47;;;;;;;11.07;6.80;;;;;;;;;;5042692;28;20280;-80
2022/03/22 11:19:14;;;;;;;11.93;6.75;;;;;;;;;;5044616;28;20734;-80
2022/03/22 11:21:43;;;;;;;8.75;6.63;;;;;;;;;;5048169;28;20282;-80
2022/03/22 11:24:11;;;;;;;9.33;6.80;;;;;;;;;;5036710;28;20226;-80
2022/03/22 11:26:42;;;;;;;7.43;6.33;;;;;;;;;;5044055;28;20232;-80
2022/03/22 11:29:10;;;;;;;8.90;7.00;;;;;;;;;;5043910;28;20238;-79
2022/03/22 11:31:39;;;;;;;9.63;7.07;;;;;;;;;;5052473;28;20324;-80
2022/03/22 11:34:12;;;;;;;8.73;6.35;;;;;;;;;;5048226;28;20235;-80
2022/03/22 11:36:59;;;;;;;9.73;7.47;;;;;;;;;;5055526;28;20278;-79
2022/03/22 11:42:18;;;;;;;8.38;6.75;;;;;;;;;;5063943;28;20199;-80
2022/03/22 11:44:56;;;;;;;7.55;6.70;;;;;;;;;;5032278;28;20238;-80
2022/03/22 11:47:23;;;;;;;9.65;6.85;;;;;;;;;;5032493;28;20681;-80
2022/03/22 11:49:52;;;;;;;8.82;7.13;;;;;;;;;;5048439;28;20202;-79
2022/03/22 11:52:22;;;;;;;8.30;7.35;;;;;;;;;;5051375;28;20246;-80
2022/03/22 11:54:56;;;;;;;8.48;6.55;;;;;;;;;;5035821;28;20200;-79
2022/03/22 11:57:23;;;;;;;10.88;7.28;;;;;;;;;;5060375;28;20671;-80
2022/03/22 11:59:52;;;;;;;10.05;6.80;;;;;;;;;;5033209;28;20311;-80
2022/03/22 12:02:20;;;;;;;9.40;6.50;;;;;;;;;;5031607;28;20608;-80
2022/03/22 12:04:51;;;;;;;8.93;6.82;;;;;;;;;;5031538;28;20239;-80
2022/03/22 12:07:24;;;;;;;11.07;7.32;;;;;;;;;;5036728;28;20311;-81
2022/03/22 12:09:52;;;;;;;9.55;6.93;;;;;;;;;;5030784;28;20301;-84
2022/03/22 12:12:19;;;;;;;10.05;7.00;;;;;;;;;;5043452;28;20200;-80
2022/03/22 12:14:48;;;;;;;11.15;7.05;;;;;;;;;;5052971;28;20224;-81
2022/03/22 12:17:15;;;;;;;9.50;6.82;;;;;;;;;;5051481;28;20204;-81
2022/03/22 12:19:43;;;;;;;9.23;6.88;;;;;;;;;;5050981;28;20711;-80
2022/03/22 12:22:10;;;;;;;7.50;6.22;;;;;;;;;;5063329;28;20200;-80
2022/03/22 12:24:39;;;;;;;7.18;6.03;;;;;;;;;;5030759;28;20688;-79
2022/03/22 12:27:08;;;;;;;8.48;6.60;;;;;;;;;;5040788;28;20235;-80
2022/03/22 12:29:39;;;;;;;7.53;5.97;;;;;;;;;;5039130;28;20206;-79
2022/03/22 12:32:07;;;;;;;10.67;6.33;;;;;;;;;;5035574;28;20283;-80
2022/03/22 12:34:39;;;;;;;6.43;5.73;;;;;;;;;;5040560;28;20739;-81
2022/03/22 12:37:08;;;;;;;9.23;6.13;;;;;;;;;;5051395;28;20233;-80
2022/03/22 12:39:36;;;;;;;9.93;6.37;;;;;;;;;;5063160;28;20218;-81
2022/03/22 12:42:05;;;;;;;7.43;5.80;;;;;;;;;;5055815;28;20195;-82
2022/03/22 12:44:32;;;;;;;7.60;6.00;;;;;;;;;;5055488;28;20374;-79
2022/03/22 12:47:00;;;;;;;8.60;6.20;;;;;;;;;;5035344;28;20204;-83
2022/03/22 12:49:27;;;;;;;9.55;6.43;;;;;;;;;;5034841;28;20276;-80
2022/03/22 12:51:55;;;;;;;10.20;6.47;;;;;;;;;;5035743;28;20637;-81
2022/03/22 12:54:23;;;;;;;7.03;6.05;;;;;;;;;;5034858;28;20283;-81
2022/03/22 12:56:50;;;;;;;8.30;5.70;;;;;;;;;;5034905;28;20258;-81
2022/03/22 12:59:35;;;;;;;7.13;5.82;;;;;;;;;;5045601;28;20255;-80
2022/03/22 13:02:06;;;;;;;9.35;6.20;;;;;;;;;;5040802;28;20288;-80
2022/03/22 13:04:36;;;;;;;9.97;6.33;;;;;;;;;;5034820;28;20215;-81
2022/03/22 13:07:05;;;;;;;8.35;6.13;;;;;;;;;;5054048;28;20303;-80
2022/03/22 13:12:18;;;;;;;7.60;5.95;;;;;;;;;;5054327;28;20206;-81
2022/03/22 13:17:32;;;;;;;9.00;5.70;;;;;;;;;;5063167;28;20203;-81
2022/03/22 13:19:59;;;;;;;9.10;6.25;;;;;;;;;;5054569;28;20593;-81
2022/03/22 13:22:27;;;;;;;8.13;5.65;;;;;;;;;;5053795;28;20235;-81
2022/03/22 13:25:04;;;;;;;7.80;5.78;;;;;;;;;;5056210;28;20254;-80
2022/03/22 13:27:32;;;;;;;7.70;5.43;;;;;;;;;;5066040;28;20345;-80
2022/03/22 13:30:01;;;;;;;8.37;5.87;;;;;;;;;;5054207;28;20278;-80
2022/03/22 13:32:29;;;;;;;9.93;5.80;;;;;;;;;;5054288;28;20199;-80
2022/03/22 13:35:01;;;;;;;6.63;5.63;;;;;;;;;;5056838;28;20200;-81
2022/03/22 13:37:29;;;;;;;8.80;5.87;;;;;;;;;;5033875;28;20196;-81
2022/03/22 13:40:04;;;;;;;7.87;5.93;;;;;;;;;;5033798;28;20255;-81
2022/03/22 13:42:31;;;;;;;7.07;5.13;;;;;;;;;;5034009;28;20231;-81
2022/03/22 13:45:00;;;;;;;7.57;5.63;;;;;;;;;;5034529;28;20296;-80
2022/03/22 13:47:29;;;;;;;7.57;5.50;;;;;;;;;;5034157;28;20212;-81
2022/03/22 13:49:57;;;;;;;7.17;5.77;;;;;;;;;;5040779;28;20243;-80
2022/03/22 13:52:27;;;;;;;11.13;5.67;;;;;;;;;;5056871;28;20202;-81
2022/03/22 13:54:55;;;;;;;8.23;5.97;;;;;;;;;;5053749;28;20284;-81
2022/03/22 13:57:25;;;;;;;8.50;6.43;;;;;;;;;;5045710;28;20626;-80
2022/03/22 13:59:57;;;;;;;8.47;6.47;;;;;;;;;;5044518;28;20220;-81
2022/03/22 14:02:26;;;;;;;11.77;6.13;;;;;;;;;;5041214;28;20204;-81
2022/03/22 14:04:55;;;;;;;9.27;5.57;;;;;;;;;;5043565;28;20223;-80
2022/03/22 14:07:22;;;;;;;7.10;5.53;;;;;;;;;;5052823;28;20203;-80
2022/03/22 14:09:49;;;;;;;7.20;6.30;;;;;;;;;;5052897;28;20263;-80
2022/03/22 14:12:17;;;;;;;10.07;6.00;;;;;;;;;;5046987;28;20228;-81
2022/03/22 14:14:44;;;;;;;7.60;5.43;;;;;;;;;;5062884;28;20231;-80
2022/03/22 14:17:11;;;;;;;6.80;5.70;;;;;;;;;;5053628;28;20239;-80
2022/03/22 14:19:40;;;;;;;9.60;6.13;;;;;;;;;;5050103;28;20307;-81
2022/03/22 14:22:07;;;;;;;8.50;5.83;;;;;;;;;;5035840;28;20291;-80
2022/03/22 14:24:34;;;;;;;6.53;5.90;;;;;;;;;;5038328;28;20279;-81
2022/03/22 14:27:01;;;;;;;8.17;5.67;;;;;;;;;;5046819;28;20938;-80
2022/03/22 14:29:29;;;;;;;7.37;6.13;;;;;;;;;;5035564;28;20283;-81
2022/03/22 14:31:57;;;;;;;9.70;6.53;;;;;;;;;;5033838;28;20200;-80
2022/03/22 14:37:11;;;;;;;7.57;6.37;;;;;;;;;;5052507;28;20639;-80
2022/03/22 14:39:38;;;;;;;8.73;6.20;;;;;;;;;;5052483;28;20668;-81
2022/03/22 14:42:06;;;;;;;8.37;5.90;;;;;;;;;;5040166;28;20197;-81
2022/03/22 14:44:34;;;;;;;8.73;6.37;;;;;;;;;;5046681;28;20230;-81
2022/03/22 14:47:03;;;;;;;6.97;6.07;;;;;;;;;;5055243;28;20245;-81
2022/03/22 14:49:30;;;;;;;8.50;6.43;;;;;;;;;;5071944;28;20195;-81
2022/03/22 14:54:43;;;;;;;7.23;5.80;;;;;;;;;;5032568;28;20330;-80
2022/03/22 14:59:55;;;;;;;7.65;5.90;;;;;;;;;;4971024;28;20230;-80
2022/03/22 15:02:23;;;;;;;7.30;5.97;;;;;;;;;;4994100;28;20232;-80
2022/03/22 15:04:51;;;;;;;6.50;5.80;;;;;;;;;;5008371;28;20288;-80
2022/03/22 15:07:21;;;;;;;7.50;5.87;;;;;;;;;;4994542;28;20260;-81
2022/03/22 15:09:50;;;;;;;7.20;5.40;;;;;;;;;;4990602;28;20234;-80
2022/03/22 15:12:20;;;;;;;6.57;5.40;;;;;;;;;;4994084;28;20228;-80
2022/03/22 15:14:48;;;;;;;7.43;5.43;;;;;;;;;;5005489;28;20206;-81
2022/03/22 15:17:15;;;;;;;7.97;5.10;;;;;;;;;;4995982;28;20209;-80
2022/03/22 15:19:42;;;;;;;8.37;5.70;;;;;;;;;;5001637;28;20201;-81
2022/03/22 15:22:10;;;;;;;9.10;5.33;;;;;;;;;;4999424;28;20292;-80
2022/03/22 15:24:38;;;;;;;8.67;5.27;;;;;;;;;;5002330;28;20676;-80
2022/03/22 15:27:09;;;;;;;7.87;5.67;;;;;;;;;;4997847;28;20281;-80